Time;durP1;ratioP1;P1;durP2;ratioP2;P2;SDS_P1;SDS_P2;PMS_P1;PMS_P2;Temp;Humidity;BMP_temperature;BMP_pressure;BME280_temperature;BME280_humidity;BME280_pressure;Samples;Min_cycle;Max_cycle;Signal;HPM_P1;HPM_P2
2022/08/02 00:01:50;;;;;;;5.95;2.05;;;20.70;93.00;;;;;;5038996;28;20578;-78
2022/08/02 00:04:16;;;;;;;5.55;2.30;;;20.70;93.00;;;;;;5038721;28;20108;-78
2022/08/02 00:06:42;;;;;;;4.75;2.00;;;20.70;93.10;;;;;;5038838;28;20106;-79
2022/08/02 00:09:07;;;;;;;5.18;2.10;;;20.70;93.20;;;;;;5056312;28;20409;-78
2022/08/02 00:11:33;;;;;;;5.90;2.47;;;20.60;93.20;;;;;;5038335;28;20075;-76
2022/08/02 00:13:58;;;;;;;6.50;2.47;;;20.60;93.20;;;;;;5056300;28;20470;-76
2022/08/02 00:16:24;;;;;;;5.65;2.45;;;20.60;93.30;;;;;;5038904;28;20028;-78
2022/08/02 00:18:49;;;;;;;6.10;1.85;;;20.60;93.30;;;;;;5038348;28;20029;-78
2022/08/02 00:21:15;;;;;;;6.70;2.00;;;20.60;93.30;;;;;;5055736;28;20071;-77
2022/08/02 00:23:41;;;;;;;5.55;1.95;;;20.60;93.30;;;;;;5038482;28;20515;-75
2022/08/02 00:26:06;;;;;;;6.65;2.10;;;20.60;93.30;;;;;;5038347;28;20017;-78
2022/08/02 00:28:32;;;;;;;6.20;2.22;;;20.50;93.30;;;;;;5038310;28;20128;-77
2022/08/02 00:30:58;;;;;;;4.68;1.85;;;20.50;93.30;;;;;;5055925;28;20031;-78
2022/08/02 00:33:24;;;;;;;6.28;2.08;;;20.50;93.30;;;;;;5037856;28;20021;-76
2022/08/02 00:35:49;;;;;;;4.97;1.90;;;20.60;93.30;;;;;;5037635;28;20033;-77
2022/08/02 00:38:15;;;;;;;6.88;2.05;;;20.60;93.30;;;;;;5037209;28;20082;-77
2022/08/02 00:40:49;;;;;;;5.82;1.95;;;20.60;93.20;;;;;;5054079;28;20397;-77
2022/08/02 00:43:15;;;;;;;5.63;1.98;;;20.60;93.20;;;;;;5055679;28;20501;-80
2022/08/02 00:45:42;;;;;;;5.20;2.00;;;20.60;93.10;;;;;;5037349;28;20025;-78
2022/08/02 00:48:09;;;;;;;5.70;2.03;;;20.60;93.10;;;;;;5037319;28;20414;-79
2022/08/02 00:50:36;;;;;;;7.47;2.15;;;20.60;93.10;;;;;;5036983;28;20032;-76
2022/08/02 00:53:01;;;;;;;6.70;2.30;;;20.60;93.10;;;;;;5037718;28;20036;-77
2022/08/02 00:55:28;;;;;;;5.88;2.28;;;20.60;93.40;;;;;;5055194;28;20489;-77
2022/08/02 00:57:54;;;;;;;5.10;2.10;;;20.60;93.10;;;;;;5054299;28;20029;-77
2022/08/02 01:00:20;;;;;;;5.28;2.00;;;20.60;93.20;;;;;;5055003;28;20028;-75
2022/08/02 01:02:45;;;;;;;5.93;2.05;;;20.50;93.20;;;;;;5053980;28;20025;-77
2022/08/02 01:05:11;;;;;;;7.85;2.22;;;20.50;93.20;;;;;;5053790;28;20083;-79
2022/08/02 01:07:37;;;;;;;5.25;1.80;;;20.50;93.30;;;;;;5054924;28;20493;-78
2022/08/02 01:10:03;;;;;;;5.28;1.92;;;20.50;93.50;;;;;;5036667;28;20029;-77
2022/08/02 01:12:29;;;;;;;6.10;2.03;;;20.50;93.30;;;;;;5054694;28;20028;-78
2022/08/02 01:14:59;;;;;;;5.43;2.30;;;20.50;93.30;;;;;;5054538;28;20029;-75
2022/08/02 01:17:34;;;;;;;4.95;1.90;;;20.50;93.30;;;;;;5054908;28;20048;-75
2022/08/02 01:20:16;;;;;;;5.47;2.17;;;20.50;93.30;;;;;;5053468;28;20029;-78
2022/08/02 01:22:56;;;;;;;5.70;1.98;;;20.50;93.30;;;;;;5053638;28;20393;-75
2022/08/02 01:25:59;;;;;;;4.57;1.98;;;20.50;93.20;;;;;;5035642;28;20025;-76
2022/08/02 01:28:42;;;;;;;4.38;1.85;;;20.50;93.20;;;;;;5036482;28;20375;-77
2022/08/02 01:31:28;;;;;;;5.47;2.00;;;20.50;93.20;;;;;;5053261;28;20021;-75
2022/08/02 01:34:29;;;;;;;4.35;1.67;;;20.50;93.10;;;;;;5035882;28;20029;-75
2022/08/02 01:37:01;;;;;;;5.50;2.00;;;20.50;93.00;;;;;;5053947;28;20033;-75
2022/08/02 01:39:29;;;;;;;5.07;2.35;;;20.50;93.00;;;;;;5053419;28;20051;-75
2022/08/02 01:41:56;;;;;;;4.65;2.00;;;20.50;93.00;;;;;;5035189;28;20079;-78
2022/08/02 01:44:25;;;;;;;6.07;2.00;;;20.50;93.00;;;;;;5051921;28;20060;-77
2022/08/02 01:46:57;;;;;;;5.72;2.00;;;20.50;93.00;;;;;;5035364;28;20499;-76
2022/08/02 01:49:25;;;;;;;5.07;1.98;;;20.50;93.00;;;;;;5034971;28;20513;-77
2022/08/02 01:54:37;;;;;;;5.25;2.03;;;20.50;93.10;;;;;;5054226;28;20032;-76
2022/08/02 01:57:05;;;;;;;5.53;2.17;;;20.50;93.10;;;;;;5035265;28;20025;-76
2022/08/02 01:59:32;;;;;;;4.60;2.00;;;20.40;93.10;;;;;;5034799;28;20028;-77
2022/08/02 02:02:00;;;;;;;4.10;1.73;;;20.40;93.40;;;;;;5052928;28;20032;-78
2022/08/02 02:04:27;;;;;;;4.72;2.08;;;20.40;93.10;;;;;;5035646;28;20035;-78
2022/08/02 02:06:56;;;;;;;6.53;2.08;;;20.40;93.10;;;;;;5040300;28;20394;-78
2022/08/02 02:09:26;;;;;;;4.95;1.90;;;20.40;93.10;;;;;;5019078;28;20025;-78
2022/08/02 02:11:53;;;;;;;4.30;1.70;;;20.40;93.10;;;;;;5032759;28;20032;-79
2022/08/02 02:14:20;;;;;;;5.22;1.92;;;20.40;93.10;;;;;;5032870;28;20087;-78
2022/08/02 02:16:48;;;;;;;4.95;1.95;;;20.40;93.10;;;;;;5032243;28;20482;-78
2022/08/02 02:19:17;;;;;;;4.97;2.00;;;20.50;93.10;;;;;;5015425;28;20033;-78
2022/08/02 02:21:42;;;;;;;5.93;2.10;;;20.40;93.10;;;;;;5032714;28;20056;-77
2022/08/02 02:24:09;;;;;;;5.80;1.95;;;20.50;93.10;;;;;;5031966;28;20490;-78
2022/08/02 02:26:36;;;;;;;5.18;1.80;;;20.60;93.00;;;;;;5032563;28;20025;-77
2022/08/02 02:29:03;;;;;;;4.72;1.90;;;20.50;92.90;;;;;;5032441;28;20024;-76
2022/08/02 02:31:33;;;;;;;4.57;2.10;;;20.50;92.90;;;;;;5015438;28;20037;-75
2022/08/02 02:34:05;;;;;;;4.32;1.92;;;20.50;92.90;;;;;;5030378;28;20594;-77
2022/08/02 02:36:33;;;;;;;4.95;2.00;;;20.40;92.90;;;;;;5030335;28;20030;-76
2022/08/02 02:39:03;;;;;;;4.15;1.83;;;20.40;92.90;;;;;;5014958;28;20029;-76
2022/08/02 02:41:29;;;;;;;4.63;1.80;;;20.40;92.90;;;;;;5014532;28;20037;-75
2022/08/02 02:43:57;;;;;;;4.18;1.83;;;20.40;92.90;;;;;;5014627;28;20451;-77
2022/08/02 02:46:24;;;;;;;5.43;1.80;;;20.40;92.90;;;;;;5014673;28;20117;-76
2022/08/02 02:48:51;;;;;;;5.35;1.90;;;20.40;93.00;;;;;;5015111;28;20501;-76
2022/08/02 02:51:18;;;;;;;3.33;1.70;;;20.40;93.00;;;;;;5032210;28;20033;-75
2022/08/02 02:53:45;;;;;;;5.72;2.00;;;20.40;93.00;;;;;;5030887;28;20028;-77
2022/08/02 02:56:12;;;;;;;4.55;1.70;;;20.30;93.00;;;;;;5032322;28;20499;-78
2022/08/02 02:58:38;;;;;;;4.97;2.10;;;20.40;93.10;;;;;;5032098;28;20018;-78
2022/08/02 03:03:50;;;;;;;4.47;1.90;;;20.40;93.10;;;;;;5036691;28;20512;-77
2022/08/02 03:06:16;;;;;;;3.70;1.67;;;20.40;93.10;;;;;;5018292;28;20025;-77
2022/08/02 03:08:42;;;;;;;3.70;1.70;;;20.40;93.10;;;;;;5018421;28;20061;-75
2022/08/02 03:11:11;;;;;;;3.55;1.50;;;20.40;93.10;;;;;;5018707;28;20022;-77
2022/08/02 03:13:38;;;;;;;4.65;1.90;;;20.40;93.00;;;;;;5035886;28;20017;-77
2022/08/02 03:16:04;;;;;;;3.42;1.70;;;20.40;92.90;;;;;;5035931;28;20385;-78
2022/08/02 03:18:33;;;;;;;7.50;2.00;;;20.40;92.90;;;;;;5018251;28;20475;-75
2022/08/02 03:21:01;;;;;;;3.92;1.80;;;20.40;92.80;;;;;;5034485;28;20064;-77
2022/08/02 03:23:27;;;;;;;5.10;2.08;;;20.40;92.80;;;;;;5034665;28;20080;-76
2022/08/02 03:25:53;;;;;;;3.45;1.60;;;20.40;92.80;;;;;;5035719;28;20025;-77
2022/08/02 03:28:18;;;;;;;4.88;1.90;;;20.40;92.80;;;;;;5035947;28;20083;-76
2022/08/02 03:30:44;;;;;;;4.63;1.88;;;20.40;92.90;;;;;;5035453;28;20087;-75
2022/08/02 03:33:10;;;;;;;4.45;1.80;;;20.40;92.90;;;;;;5035543;28;20053;-78
2022/08/02 03:35:37;;;;;;;4.80;2.00;;;20.40;92.90;;;;;;5018854;28;20026;-75
2022/08/02 03:38:04;;;;;;;3.50;1.60;;;20.40;92.90;;;;;;5017776;28;20025;-75
2022/08/02 03:40:30;;;;;;;4.97;1.80;;;20.40;92.90;;;;;;5018111;28;20063;-76
2022/08/02 03:42:56;;;;;;;4.78;1.85;;;20.30;92.90;;;;;;5035611;28;20021;-75
2022/08/02 03:45:23;;;;;;;5.30;2.15;;;20.40;92.90;;;;;;5018023;28;20033;-76
2022/08/02 03:47:50;;;;;;;4.18;1.90;;;20.40;93.00;;;;;;5018101;28;20033;-75
2022/08/02 03:50:17;;;;;;;3.92;1.80;;;20.30;92.90;;;;;;5018306;28;20025;-76
2022/08/02 03:52:43;;;;;;;4.63;1.85;;;20.30;93.00;;;;;;5032538;28;20030;-77
2022/08/02 03:55:10;;;;;;;4.53;1.90;;;20.30;93.10;;;;;;4998855;28;20026;-78
2022/08/02 03:57:40;;;;;;;4.20;1.88;;;20.40;93.10;;;;;;4998054;28;20033;-76
2022/08/02 04:00:08;;;;;;;4.55;1.90;;;20.40;93.10;;;;;;5015318;28;20479;-76
2022/08/02 04:02:34;;;;;;;4.78;1.90;;;20.40;93.30;;;;;;4998029;28;20058;-77
2022/08/02 04:05:00;;;;;;;5.35;1.80;;;20.40;92.90;;;;;;4997917;28;20030;-76
2022/08/02 04:07:25;;;;;;;4.40;1.70;;;20.40;92.90;;;;;;4997653;28;20032;-76
2022/08/02 04:09:51;;;;;;;5.30;2.08;;;20.40;92.80;;;;;;4997608;28;20116;-77
2022/08/02 04:12:16;;;;;;;4.03;2.15;;;20.40;92.70;;;;;;5020426;28;20108;-77
2022/08/02 04:14:42;;;;;;;5.18;1.88;;;20.40;92.70;;;;;;5016011;28;20026;-76
2022/08/02 04:17:11;;;;;;;4.38;1.60;;;20.40;92.80;;;;;;5034471;28;20021;-75
2022/08/02 04:19:41;;;;;;;3.92;1.88;;;20.40;92.80;;;;;;5034423;28;20029;-74
2022/08/02 04:22:15;;;;;;;4.38;1.90;;;20.40;92.80;;;;;;5034662;28;20030;-75
2022/08/02 04:24:49;;;;;;;3.92;1.70;;;20.30;92.80;;;;;;5034554;28;20026;-78
2022/08/02 04:27:15;;;;;;;4.53;1.70;;;20.30;92.70;;;;;;5035085;28;20070;-78
2022/08/02 04:29:42;;;;;;;4.55;2.00;;;20.30;92.80;;;;;;5017085;28;20032;-78
2022/08/02 04:32:08;;;;;;;3.78;1.90;;;20.30;92.80;;;;;;5017663;28;20030;-80
2022/08/02 04:34:33;;;;;;;5.15;1.90;;;20.30;92.90;;;;;;5035779;28;20091;-75
2022/08/02 04:36:59;;;;;;;4.93;1.92;;;20.30;92.80;;;;;;5033473;28;20083;-76
2022/08/02 04:39:26;;;;;;;4.10;1.90;;;20.30;92.90;;;;;;5037404;28;20576;-76
2022/08/02 04:41:52;;;;;;;3.75;1.67;;;20.30;92.90;;;;;;5055612;28;20037;-77
2022/08/02 04:44:17;;;;;;;4.15;1.90;;;20.30;93.00;;;;;;5036935;28;20072;-77
2022/08/02 04:46:44;;;;;;;4.35;1.80;;;20.30;93.00;;;;;;5037278;28;20503;-78
2022/08/02 04:49:10;;;;;;;4.18;1.60;;;20.40;93.00;;;;;;5027140;28;20136;-77
2022/08/02 04:51:37;;;;;;;4.10;1.88;;;20.40;93.00;;;;;;5034738;28;20074;-76
2022/08/02 04:54:03;;;;;;;5.65;2.08;;;20.40;92.90;;;;;;5035249;28;20033;-76
2022/08/02 04:56:29;;;;;;;3.78;1.88;;;20.40;92.90;;;;;;5035557;28;20029;-77
2022/08/02 04:58:54;;;;;;;5.25;2.03;;;20.40;92.80;;;;;;5018334;28;20551;-76
2022/08/02 05:01:20;;;;;;;4.82;2.00;;;20.40;92.80;;;;;;5017303;28;20022;-76
2022/08/02 05:03:45;;;;;;;5.90;1.90;;;20.40;92.90;;;;;;5036377;28;20390;-78
2022/08/02 05:06:11;;;;;;;9.55;2.05;;;20.40;92.60;;;;;;5017909;28;20053;-77
2022/08/02 05:08:36;;;;;;;4.72;1.83;;;20.40;92.40;;;;;;5032915;28;20026;-78
2022/08/02 05:11:02;;;;;;;5.63;2.17;;;20.30;92.50;;;;;;5034399;28;20087;-78
2022/08/02 05:13:27;;;;;;;7.28;2.08;;;20.30;92.30;;;;;;5020982;28;20025;-78
2022/08/02 05:15:53;;;;;;;6.75;2.25;;;20.30;92.40;;;;;;5035557;28;20584;-77
2022/08/02 05:18:18;;;;;;;7.13;2.53;;;20.30;92.40;;;;;;5032440;28;20032;-78
2022/08/02 05:20:44;;;;;;;4.82;2.03;;;20.30;92.40;;;;;;5035794;28;20021;-79
2022/08/02 05:23:09;;;;;;;6.05;2.03;;;20.30;92.40;;;;;;5019419;28;20052;-78
2022/08/02 05:25:35;;;;;;;5.97;2.30;;;20.30;92.50;;;;;;5019722;28;20025;-79
2022/08/02 05:28:00;;;;;;;4.25;2.00;;;20.30;92.50;;;;;;5035421;28;20383;-82
2022/08/02 05:30:26;;;;;;;5.13;2.25;;;20.30;92.50;;;;;;5035528;28;20072;-80
2022/08/02 05:32:51;;;;;;;6.75;2.20;;;20.30;92.50;;;;;;5019061;28;20075;-82
2022/08/02 05:35:20;;;;;;;4.97;1.83;;;20.30;92.50;;;;;;5036476;28;20486;-78
2022/08/02 05:37:47;;;;;;;5.82;2.53;;;20.30;92.50;;;;;;5020206;28;20064;-78
2022/08/02 05:40:13;;;;;;;5.60;2.10;;;20.40;92.50;;;;;;5036839;28;20033;-79
2022/08/02 05:42:40;;;;;;;5.78;2.33;;;20.40;92.50;;;;;;5037097;28;20021;-78
2022/08/02 05:45:06;;;;;;;4.78;1.80;;;20.40;92.40;;;;;;5031073;28;20034;-78
2022/08/02 05:47:31;;;;;;;5.47;2.08;;;20.40;92.40;;;;;;5015439;28;20030;-81
2022/08/02 05:49:57;;;;;;;4.07;2.13;;;20.40;92.40;;;;;;5014173;28;20112;-78
2022/08/02 05:52:25;;;;;;;4.18;1.92;;;20.50;92.40;;;;;;5018682;28;20060;-78
2022/08/02 05:55:05;;;;;;;5.30;2.20;;;20.40;92.40;;;;;;5019304;28;20486;-79
2022/08/02 05:57:45;;;;;;;5.95;2.30;;;20.40;92.50;;;;;;5018658;28;20064;-78
2022/08/02 06:00:13;;;;;;;5.30;2.05;;;20.40;92.60;;;;;;5017766;28;20064;-78
2022/08/02 06:02:43;;;;;;;4.85;1.85;;;20.40;92.60;;;;;;5018759;28;20033;-77
2022/08/02 06:05:15;;;;;;;6.68;1.85;;;20.40;92.60;;;;;;5028882;28;20046;-77
2022/08/02 06:07:43;;;;;;;5.25;2.10;;;20.40;92.50;;;;;;5036616;28;20035;-76
2022/08/02 06:10:13;;;;;;;5.30;2.03;;;20.40;92.60;;;;;;5036260;28;20029;-78
2022/08/02 06:12:48;;;;;;;6.18;2.00;;;20.40;92.60;;;;;;5037477;28;20028;-77
2022/08/02 06:15:16;;;;;;;6.30;2.50;;;20.40;92.50;;;;;;5018402;28;20414;-79
2022/08/02 06:17:42;;;;;;;6.53;1.95;;;20.40;92.40;;;;;;5017302;28;20537;-79
2022/08/02 06:20:10;;;;;;;5.78;2.25;;;20.40;92.20;;;;;;5035248;28;20037;-80
2022/08/02 06:22:42;;;;;;;5.22;2.10;;;20.40;92.20;;;;;;5017556;28;20030;-78
2022/08/02 06:25:09;;;;;;;5.45;1.80;;;20.40;92.30;;;;;;5017720;28;20021;-80
2022/08/02 06:27:35;;;;;;;4.45;2.00;;;20.40;92.20;;;;;;5017530;28;20401;-78
2022/08/02 06:30:01;;;;;;;4.93;1.88;;;20.50;92.10;;;;;;5033431;28;20052;-79
2022/08/02 06:32:27;;;;;;;6.18;2.10;;;20.50;92.00;;;;;;5017269;28;20486;-77
2022/08/02 06:34:52;;;;;;;4.88;2.13;;;20.60;91.90;;;;;;5034240;28;20060;-77
2022/08/02 06:37:42;;;;;;;4.93;2.05;;;20.60;91.90;;;;;;5017680;28;20014;-77
2022/08/02 06:40:30;;;;;;;5.43;2.20;;;20.60;91.90;;;;;;5034723;28;20529;-77
2022/08/02 06:43:22;;;;;;;6.22;2.00;;;20.60;91.80;;;;;;5025234;28;20041;-79
2022/08/02 06:45:47;;;;;;;4.80;2.15;;;20.60;91.80;;;;;;5013162;28;20527;-79
2022/08/02 06:48:13;;;;;;;4.55;2.10;;;20.60;91.80;;;;;;5023231;28;20037;-79
2022/08/02 06:50:40;;;;;;;4.13;1.98;;;20.60;91.80;;;;;;5041382;28;20025;-79
2022/08/02 06:53:07;;;;;;;6.43;2.10;;;20.60;91.80;;;;;;5039123;28;20517;-79
2022/08/02 06:55:32;;;;;;;4.13;1.90;;;20.60;91.80;;;;;;5039435;28;20405;-79
2022/08/02 06:57:59;;;;;;;4.15;2.03;;;20.60;91.80;;;;;;5021827;28;20049;-79
2022/08/02 07:00:24;;;;;;;4.93;2.08;;;20.60;91.80;;;;;;5038568;28;20025;-78
2022/08/02 07:02:50;;;;;;;3.85;1.98;;;20.60;91.80;;;;;;5021339;28;20037;-79
2022/08/02 07:05:16;;;;;;;4.93;2.00;;;20.60;91.80;;;;;;5038341;28;20021;-78
2022/08/02 07:07:42;;;;;;;4.13;1.88;;;20.50;91.80;;;;;;5021301;28;20028;-78
2022/08/02 07:10:08;;;;;;;4.45;1.90;;;20.60;91.80;;;;;;5019683;28;20030;-78
2022/08/02 07:12:34;;;;;;;5.10;1.90;;;20.70;91.80;;;;;;5037018;28;20402;-79
2022/08/02 07:15:01;;;;;;;3.83;1.90;;;20.70;91.80;;;;;;5036496;28;20056;-78
2022/08/02 07:17:27;;;;;;;4.63;1.88;;;20.70;91.80;;;;;;5019338;28;20048;-85
2022/08/02 07:19:53;;;;;;;5.15;1.92;;;20.70;91.70;;;;;;5029629;28;20029;-83
2022/08/02 07:22:21;;;;;;;6.15;2.15;;;20.80;91.60;;;;;;5016763;28;20036;-78
2022/08/02 07:24:47;;;;;;;4.18;2.00;;;20.80;91.50;;;;;;5000968;28;20498;-78
2022/08/02 07:27:13;;;;;;;5.32;1.90;;;20.90;91.40;;;;;;5018458;28;20078;-79
2022/08/02 07:29:39;;;;;;;4.32;1.90;;;20.90;91.30;;;;;;5018268;28;20041;-78
2022/08/02 07:32:05;;;;;;;3.90;1.75;;;20.90;91.30;;;;;;5017621;28;20056;-77
2022/08/02 07:34:31;;;;;;;3.22;1.70;;;20.90;91.30;;;;;;5034517;28;20060;-78
2022/08/02 07:36:56;;;;;;;4.88;2.22;;;20.90;91.40;;;;;;5035342;28;20128;-79
2022/08/02 07:39:22;;;;;;;5.30;2.20;;;20.90;91.40;;;;;;5017232;28;20076;-78
2022/08/02 07:41:50;;;;;;;4.40;2.38;;;20.90;91.40;;;;;;5017044;28;20084;-77
2022/08/02 07:44:16;;;;;;;4.55;2.20;;;20.90;91.40;;;;;;5033243;28;20021;-79
2022/08/02 07:46:41;;;;;;;4.35;2.10;;;20.90;91.50;;;;;;5016889;28;20076;-78
2022/08/02 07:49:07;;;;;;;3.42;1.98;;;20.90;91.40;;;;;;5017751;28;20056;-78
2022/08/02 07:51:34;;;;;;;6.85;2.42;;;20.90;91.40;;;;;;5038069;28;20021;-77
2022/08/02 07:54:00;;;;;;;4.90;2.00;;;20.90;91.40;;;;;;5038382;28;20025;-78
2022/08/02 07:56:26;;;;;;;4.28;2.05;;;21.00;91.30;;;;;;5019557;28;20078;-77
2022/08/02 07:58:51;;;;;;;5.90;2.47;;;20.90;91.30;;;;;;5037620;28;20021;-77
2022/08/02 08:01:17;;;;;;;4.93;2.42;;;21.00;91.40;;;;;;5037447;28;20363;-77
2022/08/02 08:03:42;;;;;;;5.78;2.40;;;21.00;91.40;;;;;;5019146;28;20025;-78
2022/08/02 08:06:08;;;;;;;5.07;2.40;;;21.00;91.40;;;;;;5019035;28;20061;-77
2022/08/02 08:08:34;;;;;;;4.90;2.50;;;21.00;91.40;;;;;;5035770;28;20048;-78
2022/08/02 08:10:59;;;;;;;5.45;2.85;;;21.00;91.30;;;;;;5037053;28;20039;-79
2022/08/02 08:13:25;;;;;;;4.40;2.08;;;21.10;91.20;;;;;;5036709;28;20076;-79
2022/08/02 08:15:50;;;;;;;4.75;2.25;;;21.10;91.10;;;;;;5035443;28;20028;-77
2022/08/02 08:18:16;;;;;;;4.60;2.25;;;21.20;91.00;;;;;;5018798;28;20014;-77
2022/08/02 08:20:41;;;;;;;5.43;2.47;;;21.20;91.00;;;;;;5018265;28;20033;-79
2022/08/02 08:23:07;;;;;;;4.75;2.28;;;21.10;90.90;;;;;;5036488;28;20362;-77
2022/08/02 08:25:32;;;;;;;5.85;2.20;;;21.10;90.90;;;;;;5036445;28;20033;-78
2022/08/02 08:27:58;;;;;;;4.05;2.10;;;21.20;91.00;;;;;;5036368;28;20029;-77
2022/08/02 08:30:23;;;;;;;4.82;2.33;;;21.10;91.00;;;;;;5034535;28;20493;-77
2022/08/02 08:32:49;;;;;;;4.40;2.45;;;21.20;91.10;;;;;;5034859;28;20116;-77
2022/08/02 08:35:15;;;;;;;4.50;2.30;;;21.20;91.10;;;;;;5035624;28;20036;-79
2022/08/02 08:37:40;;;;;;;4.47;2.55;;;21.20;91.00;;;;;;5018083;28;20409;-80
2022/08/02 08:40:08;;;;;;;5.10;2.42;;;21.20;91.00;;;;;;5017777;28;20446;-77
2022/08/02 08:42:35;;;;;;;5.00;2.20;;;21.20;91.00;;;;;;5035819;28;20021;-79
2022/08/02 08:45:01;;;;;;;4.95;2.30;;;21.20;91.00;;;;;;5017202;28;20025;-78
2022/08/02 08:47:39;;;;;;;4.55;2.25;;;21.20;91.00;;;;;;5035876;28;20425;-79
2022/08/02 08:50:17;;;;;;;5.00;2.55;;;21.20;91.00;;;;;;5017585;28;20029;-78
2022/08/02 08:52:50;;;;;;;4.45;2.40;;;21.20;90.90;;;;;;5017942;28;20061;-77
2022/08/02 08:55:16;;;;;;;4.15;2.22;;;21.30;91.30;;;;;;5017774;28;20036;-77
2022/08/02 08:57:42;;;;;;;5.03;2.50;;;21.30;91.00;;;;;;5035346;28;20018;-77
2022/08/02 09:00:12;;;;;;;4.22;2.50;;;21.30;90.90;;;;;;5034679;28;20030;-79
2022/08/02 09:02:41;;;;;;;4.28;2.20;;;21.40;90.90;;;;;;5017522;28;20041;-77
2022/08/02 09:05:10;;;;;;;5.15;2.75;;;21.40;91.00;;;;;;5039886;28;20036;-80
2022/08/02 09:07:36;;;;;;;5.10;2.70;;;21.40;90.70;;;;;;5041147;28;20026;-80
2022/08/02 09:10:54;;;;;;;5.32;2.47;;;21.40;90.70;;;;;;5024437;28;20072;-79
2022/08/02 09:13:21;;;;;;;4.55;2.55;;;21.40;90.70;;;;;;4981143;28;20564;-81
2022/08/02 09:15:57;;;;;;;4.22;2.40;;;21.40;90.70;;;;;;5042444;28;20067;-79
2022/08/02 09:18:33;;;;;;;4.65;2.63;;;21.40;90.80;;;;;;5024247;28;20032;-81
2022/08/02 09:21:01;;;;;;;4.63;2.50;;;21.30;90.80;;;;;;5040810;28;20025;-79
2022/08/02 09:23:35;;;;;;;3.95;2.17;;;21.40;90.80;;;;;;5022780;28;20036;-78
2022/08/02 09:26:06;;;;;;;4.15;2.17;;;21.40;90.80;;;;;;5039101;28;20029;-78
2022/08/02 09:28:34;;;;;;;4.70;2.50;;;21.40;90.70;;;;;;5040249;28;20025;-79
2022/08/02 09:31:09;;;;;;;4.53;2.63;;;21.40;90.70;;;;;;5020983;28;20036;-78
2022/08/02 09:33:37;;;;;;;5.78;2.40;;;21.40;90.70;;;;;;5021274;28;20490;-79
2022/08/02 09:36:11;;;;;;;4.90;2.67;;;21.40;90.70;;;;;;5021353;28;20498;-79
2022/08/02 09:38:38;;;;;;;4.35;2.40;;;21.40;90.70;;;;;;5035766;28;20076;-79
2022/08/02 09:41:05;;;;;;;4.15;2.50;;;21.40;90.70;;;;;;5019706;28;20033;-78
2022/08/02 09:43:39;;;;;;;5.07;2.50;;;21.50;90.70;;;;;;5020250;28;20094;-78
2022/08/02 09:46:22;;;;;;;4.72;2.45;;;21.40;90.80;;;;;;5019854;28;20041;-79
2022/08/02 09:49:00;;;;;;;4.38;2.30;;;21.50;90.70;;;;;;5019151;28;20026;-80
2022/08/02 09:51:27;;;;;;;5.80;2.42;;;21.50;90.70;;;;;;5018663;28;20097;-78
2022/08/02 09:53:59;;;;;;;4.50;2.50;;;21.50;90.70;;;;;;5019261;28;20025;-78
2022/08/02 09:56:26;;;;;;;5.72;2.58;;;21.60;90.60;;;;;;5019198;28;20569;-78
2022/08/02 09:58:53;;;;;;;4.72;2.28;;;21.60;90.50;;;;;;5036136;28;20502;-78
2022/08/02 10:01:40;;;;;;;4.75;2.60;;;21.60;90.50;;;;;;5018443;28;20025;-79
2022/08/02 10:04:10;;;;;;;6.25;2.78;;;21.60;90.50;;;;;;5035843;28;20053;-79
2022/08/02 10:06:41;;;;;;;4.63;2.13;;;21.60;90.50;;;;;;5018163;28;20095;-77
2022/08/02 10:09:07;;;;;;;4.45;2.17;;;21.60;90.40;;;;;;5036446;28;20025;-78
2022/08/02 10:11:34;;;;;;;4.43;2.10;;;21.60;90.40;;;;;;5036061;28;20022;-79
2022/08/02 10:14:01;;;;;;;4.30;2.08;;;21.60;90.40;;;;;;5036666;28;20159;-78
2022/08/02 10:16:27;;;;;;;3.05;2.00;;;21.60;90.40;;;;;;5018320;28;20025;-79
2022/08/02 10:18:54;;;;;;;4.65;2.33;;;21.60;90.50;;;;;;5034839;28;20512;-79
2022/08/02 10:21:43;;;;;;;4.55;2.10;;;21.60;90.50;;;;;;5034472;28;20033;-78
2022/08/02 10:24:13;;;;;;;3.42;2.15;;;21.50;90.50;;;;;;5017351;28;20454;-78
2022/08/02 10:26:44;;;;;;;3.72;2.28;;;21.60;90.60;;;;;;5016870;28;20020;-78
2022/08/02 10:29:13;;;;;;;4.25;2.00;;;21.50;90.60;;;;;;5034978;28;20104;-77
2022/08/02 10:31:56;;;;;;;4.45;2.40;;;21.50;90.60;;;;;;5016299;28;20045;-77
2022/08/02 10:34:39;;;;;;;4.05;2.30;;;21.60;90.60;;;;;;5016158;28;20445;-78
2022/08/02 10:37:07;;;;;;;3.83;2.20;;;21.60;90.60;;;;;;5016223;28;20036;-77
2022/08/02 10:39:44;;;;;;;4.03;2.20;;;21.60;90.60;;;;;;5016411;28;20036;-78
2022/08/02 10:42:11;;;;;;;3.85;2.28;;;21.60;90.60;;;;;;5032831;28;20516;-78
2022/08/02 10:44:38;;;;;;;3.47;1.92;;;21.60;90.50;;;;;;5016339;28;20022;-77
2022/08/02 10:47:24;;;;;;;5.40;2.22;;;21.60;90.40;;;;;;5033585;28;20486;-77
2022/08/02 10:49:55;;;;;;;4.70;2.10;;;21.60;90.40;;;;;;5033408;28;20030;-80
2022/08/02 10:52:30;;;;;;;3.33;2.05;;;21.60;90.40;;;;;;5032248;28;20049;-78
2022/08/02 10:55:09;;;;;;;3.50;2.08;;;21.60;90.40;;;;;;5015978;28;20026;-78
2022/08/02 10:57:35;;;;;;;3.35;1.98;;;21.60;90.40;;;;;;5016081;28;20021;-77
2022/08/02 11:00:09;;;;;;;3.30;1.85;;;21.60;90.50;;;;;;5015609;28;20037;-77
2022/08/02 11:02:41;;;;;;;4.72;2.10;;;21.60;90.40;;;;;;5033492;28;20030;-78
2022/08/02 11:05:06;;;;;;;3.45;1.88;;;21.60;90.40;;;;;;5015628;28;20032;-78
2022/08/02 11:07:36;;;;;;;3.83;2.13;;;21.60;90.40;;;;;;5032539;28;20508;-78
2022/08/02 11:10:29;;;;;;;3.20;1.95;;;21.60;90.50;;;;;;5032809;28;20029;-79
2022/08/02 11:13:02;;;;;;;3.22;1.90;;;21.60;90.50;;;;;;5031934;28;20490;-78
2022/08/02 11:15:29;;;;;;;3.83;2.03;;;21.60;90.50;;;;;;5032336;28;20068;-78
2022/08/02 11:17:57;;;;;;;5.95;1.98;;;21.60;90.50;;;;;;5032262;28;20064;-78
2022/08/02 11:20:25;;;;;;;3.95;1.80;;;21.50;90.50;;;;;;5015554;28;20034;-79
2022/08/02 11:22:52;;;;;;;4.65;2.00;;;21.60;90.60;;;;;;5036098;28;20137;-78
2022/08/02 11:25:23;;;;;;;3.50;1.90;;;21.60;90.70;;;;;;5028168;28;20442;-82
2022/08/02 11:27:51;;;;;;;3.65;1.85;;;21.60;90.60;;;;;;5047687;28;20060;-82
2022/08/02 11:30:17;;;;;;;3.13;1.95;;;21.60;90.60;;;;;;5047625;28;20057;-81
2022/08/02 11:32:43;;;;;;;3.45;1.95;;;21.60;90.60;;;;;;5029213;28;20096;-78
2022/08/02 11:35:09;;;;;;;3.58;1.70;;;21.50;90.50;;;;;;5028551;28;20072;-80
2022/08/02 11:37:39;;;;;;;4.03;1.90;;;21.60;90.40;;;;;;5028148;28;20025;-81
2022/08/02 11:40:17;;;;;;;3.38;2.00;;;21.60;90.30;;;;;;5045360;28;20032;-80
2022/08/02 11:42:44;;;;;;;2.90;1.73;;;21.70;90.60;;;;;;5045573;28;20534;-80
2022/08/02 11:45:14;;;;;;;3.40;2.00;;;21.60;90.30;;;;;;5043680;28;20029;-78
2022/08/02 11:47:51;;;;;;;3.03;1.92;;;21.60;90.40;;;;;;5025418;28;20030;-79
2022/08/02 11:50:19;;;;;;;3.10;1.95;;;21.60;90.40;;;;;;5024335;28;20022;-81
2022/08/02 11:52:45;;;;;;;3.08;1.70;;;21.60;90.50;;;;;;5040847;28;20026;-82
2022/08/02 11:55:12;;;;;;;3.15;1.70;;;21.50;90.50;;;;;;5024276;28;20017;-80
2022/08/02 11:57:38;;;;;;;3.97;1.98;;;21.50;90.60;;;;;;5023552;28;20112;-80
2022/08/02 12:00:15;;;;;;;3.33;1.70;;;21.50;90.60;;;;;;5023532;28;20057;-78
2022/08/02 12:02:46;;;;;;;2.40;1.70;;;21.50;90.60;;;;;;5022994;28;20029;-78
2022/08/02 12:05:16;;;;;;;3.60;1.73;;;21.50;90.60;;;;;;5023267;28;20021;-80
2022/08/02 12:07:44;;;;;;;4.35;1.90;;;21.50;90.60;;;;;;5040969;28;20394;-78
2022/08/02 12:10:14;;;;;;;3.72;2.10;;;21.50;90.70;;;;;;5040183;28;20418;-80
2022/08/02 12:12:51;;;;;;;3.05;1.60;;;21.40;90.70;;;;;;5040364;28;20101;-78
2022/08/02 12:15:39;;;;;;;2.38;1.50;;;21.50;90.70;;;;;;5038795;28;20025;-80
2022/08/02 12:20:53;;;;;;;3.85;2.10;;;21.30;90.80;;;;;;5039949;28;20460;-78
2022/08/02 12:23:19;;;;;;;2.63;1.58;;;21.40;90.80;;;;;;5020875;28;20067;-80
2022/08/02 12:25:44;;;;;;;2.78;1.60;;;21.40;90.80;;;;;;5037911;28;20037;-79
2022/08/02 12:28:20;;;;;;;2.78;1.67;;;21.40;91.00;;;;;;5019697;28;20402;-78
2022/08/02 12:30:58;;;;;;;3.00;1.88;;;21.40;90.70;;;;;;5020340;28;20029;-80
2022/08/02 12:33:43;;;;;;;3.53;1.70;;;21.40;90.60;;;;;;5019911;28;20512;-79
2022/08/02 12:36:20;;;;;;;2.58;1.60;;;21.40;90.90;;;;;;5037264;28;20486;-78
2022/08/02 12:38:57;;;;;;;2.47;1.63;;;21.40;90.70;;;;;;5038273;28;20018;-78
2022/08/02 12:41:26;;;;;;;2.88;1.73;;;21.40;90.80;;;;;;5036666;28;20029;-78
2022/08/02 12:43:52;;;;;;;2.88;1.70;;;21.40;90.80;;;;;;5037110;28;20014;-78
2022/08/02 12:46:19;;;;;;;2.75;1.70;;;21.30;90.90;;;;;;5019100;28;20021;-78
2022/08/02 12:48:45;;;;;;;2.72;1.52;;;21.30;90.90;;;;;;5019294;28;20031;-78
2022/08/02 12:51:29;;;;;;;3.10;1.63;;;21.30;90.90;;;;;;5037050;28;20040;-78
2022/08/02 12:54:11;;;;;;;3.33;1.95;;;21.30;90.90;;;;;;5037045;28;20025;-79
2022/08/02 12:56:38;;;;;;;3.85;1.90;;;21.30;91.00;;;;;;5018253;28;20025;-78
2022/08/02 12:59:03;;;;;;;2.65;1.52;;;21.30;91.00;;;;;;5036601;28;20028;-78
2022/08/02 13:01:29;;;;;;;2.90;1.90;;;21.20;90.90;;;;;;5017998;28;20025;-79
2022/08/02 13:03:56;;;;;;;3.05;1.80;;;21.30;91.00;;;;;;5017557;28;20071;-79
2022/08/02 13:06:22;;;;;;;3.22;1.75;;;21.30;91.00;;;;;;5017942;28;20130;-79